createdAt,value
2022-08-24T00:03:55.203Z,74.96
2022-08-24T00:14:26.413Z,75.04
2022-08-24T00:24:55.479Z,75.07
2022-08-24T00:35:24.968Z,75.14
2022-08-24T00:46:16.201Z,75.29
2022-08-24T00:56:49.601Z,75.40
2022-08-24T01:07:18.545Z,75.50
2022-08-24T01:18:06.008Z,75.23
2022-08-24T01:28:37.078Z,75.16
2022-08-24T01:39:12.001Z,75.12
2022-08-24T01:49:44.402Z,74.89
2022-08-24T02:00:16.736Z,74.73
2022-08-24T02:10:54.984Z,74.92
2022-08-24T02:21:26.032Z,75.05
2022-08-24T02:31:55.961Z,74.93
2022-08-24T02:42:24.941Z,75.22
2022-08-24T02:52:54.654Z,75.16
2022-08-24T03:03:25.476Z,75.48
2022-08-24T03:13:54.441Z,75.45
2022-08-24T03:24:23.852Z,75.59
2022-08-24T03:34:52.763Z,75.77
2022-08-24T03:45:23.213Z,75.99
2022-08-24T03:55:52.625Z,75.87
2022-08-24T04:06:23.318Z,75.98
2022-08-24T04:16:55.332Z,76.04
2022-08-24T04:27:27.200Z,76.04
2022-08-24T04:37:56.088Z,76.15
2022-08-24T04:48:25.497Z,75.89
2022-08-24T04:58:55.922Z,76.01
2022-08-24T05:09:24.850Z,76.32
2022-08-24T05:19:53.752Z,76.33
2022-08-24T05:30:23.339Z,76.19
2022-08-24T05:40:52.482Z,76.19
2022-08-24T05:51:21.801Z,76.40
2022-08-24T06:01:50.981Z,76.66
2022-08-24T06:12:20.403Z,76.79
2022-08-24T06:22:49.335Z,76.50
2022-08-24T06:33:19.527Z,76.02
2022-08-24T06:43:49.043Z,75.90
2022-08-24T06:54:18.173Z,75.70
2022-08-24T07:04:47.196Z,75.95
2022-08-24T07:15:16.658Z,75.94
2022-08-24T07:25:49.698Z,75.70
2022-08-24T07:36:22.398Z,75.02
2022-08-24T07:46:52.870Z,74.82
2022-08-24T07:57:21.802Z,75.28
2022-08-24T08:07:52.233Z,75.71
2022-08-24T08:18:21.937Z,76.19
2022-08-24T08:28:50.948Z,76.46
2022-08-24T08:39:22.006Z,76.32
2022-08-24T08:50:11.205Z,75.97
2022-08-24T09:00:56.446Z,75.63
2022-08-24T09:11:36.567Z,75.09
2022-08-24T09:22:15.932Z,74.85
2022-08-24T09:33:07.783Z,74.68
2022-08-24T09:44:07.164Z,74.40
2022-08-24T09:55:10.709Z,74.00
2022-08-24T10:06:04.499Z,73.78
2022-08-24T10:16:46.128Z,73.47
2022-08-24T10:27:33.474Z,73.20
2022-08-24T10:38:47.858Z,72.61
2022-08-24T10:49:58.298Z,72.58
2022-08-24T11:00:30.776Z,72.52
2022-08-24T11:11:11.833Z,72.79
2022-08-24T11:21:53.436Z,73.07
2022-08-24T11:32:39.086Z,72.88
2022-08-24T11:43:19.131Z,72.66
2022-08-24T11:54:01.573Z,73.00
2022-08-24T12:04:51.171Z,72.54
2022-08-24T12:15:29.020Z,72.57
2022-08-24T12:26:05.505Z,72.34
2022-08-24T12:36:40.207Z,72.55
2022-08-24T12:47:09.787Z,71.60
2022-08-24T12:58:02.902Z,70.54
2022-08-24T13:08:40.539Z,70.97
2022-08-24T13:19:20.065Z,70.75
2022-08-24T13:29:55.244Z,70.33
2022-08-24T13:40:28.336Z,70.17
2022-08-24T13:51:25.679Z,69.99
2022-08-24T14:02:06.433Z,71.06
2022-08-24T14:12:54.132Z,71.29
2022-08-24T14:23:46.220Z,70.76
2022-08-24T14:34:26.713Z,70.02
2022-08-24T14:45:05.795Z,70.00
2022-08-24T14:55:46.758Z,69.62
2022-08-24T15:06:28.603Z,69.30
2022-08-24T15:17:08.428Z,69.38
2022-08-24T15:27:45.143Z,69.70
2022-08-24T15:38:26.091Z,69.78
2022-08-24T15:49:01.623Z,69.71
2022-08-24T15:59:34.178Z,69.72
2022-08-24T16:10:10.880Z,69.58
2022-08-24T16:20:40.750Z,69.57
2022-08-24T16:31:10.092Z,69.25
2022-08-24T16:41:40.501Z,69.51
2022-08-24T16:52:10.224Z,69.77
2022-08-24T17:02:39.348Z,69.78
2022-08-24T17:13:08.489Z,70.10
2022-08-24T17:23:38.089Z,70.09
2022-08-24T17:34:08.892Z,70.43
2022-08-24T17:44:37.970Z,70.29
2022-08-24T17:55:08.225Z,70.68
2022-08-24T18:05:37.767Z,71.17
2022-08-24T18:16:08.588Z,70.49
2022-08-24T18:26:39.289Z,70.69
2022-08-24T18:37:16.539Z,70.75
2022-08-24T18:47:53.200Z,70.46
2022-08-24T18:58:22.796Z,70.47
2022-08-24T19:08:52.201Z,70.55
2022-08-24T19:19:21.530Z,70.51
2022-08-24T19:29:57.979Z,70.47
2022-08-24T19:40:27.274Z,70.41
2022-08-24T19:50:56.969Z,70.35
2022-08-24T20:01:27.766Z,70.16
2022-08-24T20:11:56.838Z,69.72
2022-08-24T20:22:26.021Z,69.75
2022-08-24T20:32:54.845Z,69.30
2022-08-24T20:43:23.856Z,69.23
2022-08-24T20:53:52.787Z,69.34
2022-08-24T21:04:22.083Z,69.60
2022-08-24T21:14:51.285Z,69.33
2022-08-24T21:25:21.361Z,69.13
2022-08-24T21:35:50.196Z,69.01
2022-08-24T21:46:20.613Z,69.05
2022-08-24T21:56:49.815Z,69.66
2022-08-24T22:07:19.101Z,69.21
2022-08-24T22:17:51.902Z,69.34
2022-08-24T22:28:21.728Z,69.39
2022-08-24T22:38:50.758Z,69.30
2022-08-24T22:49:21.191Z,69.20
2022-08-24T22:59:50.043Z,69.33
2022-08-24T23:10:18.868Z,69.26
2022-08-24T23:20:47.704Z,69.27
2022-08-24T23:31:18.210Z,69.43
2022-08-24T23:41:48.121Z,69.39
2022-08-24T23:52:28.279Z,69.87
